createdAt,value
2023-04-06T00:00:15.429Z,18.63
2023-04-06T00:02:42.065Z,19.08
2023-04-06T00:05:08.694Z,17.88
2023-04-06T00:07:35.319Z,17.02
2023-04-06T00:10:01.943Z,19.60
2023-04-06T00:12:28.392Z,15.63
2023-04-06T00:14:54.853Z,16.05
2023-04-06T00:17:21.238Z,18.02
2023-04-06T00:19:47.656Z,17.80
2023-04-06T00:22:14.148Z,17.80
2023-04-06T00:24:41.048Z,17.58
2023-04-06T00:29:33.861Z,16.15
2023-04-06T00:32:00.530Z,16.67
2023-04-06T00:34:27.020Z,20.55
2023-04-06T00:36:53.489Z,17.08
2023-04-06T00:39:21.097Z,14.20
2023-04-06T00:41:53.272Z,16.42
2023-04-06T00:44:20.131Z,18.75
2023-04-06T00:49:13.001Z,15.95
2023-04-06T00:51:39.442Z,18.20
2023-04-06T00:54:06.581Z,16.98
2023-04-06T00:56:35.372Z,15.52
2023-04-06T01:01:29.541Z,17.02
2023-04-06T01:04:00.446Z,22.42
2023-04-06T01:06:27.144Z,15.82
2023-04-06T01:09:00.269Z,19.38
2023-04-06T01:11:27.725Z,21.33
2023-04-06T01:16:46.710Z,17.48
2023-04-06T01:19:16.175Z,15.85
2023-04-06T01:21:46.766Z,18.30
2023-04-06T01:24:31.315Z,17.80
2023-04-06T01:27:17.220Z,19.27
2023-04-06T01:30:05.847Z,14.77
2023-04-06T01:32:48.817Z,15.95
2023-04-06T01:35:20.599Z,15.77
2023-04-06T01:37:58.150Z,19.60
2023-04-06T01:40:30.411Z,15.88
2023-04-06T01:42:56.904Z,16.70
2023-04-06T01:45:31.936Z,18.38
2023-04-06T01:48:05.169Z,17.73
2023-04-06T01:50:31.578Z,17.02
2023-04-06T01:52:58.348Z,16.08
2023-04-06T01:55:26.990Z,15.52
2023-04-06T01:58:16.377Z,17.70
2023-04-06T02:00:42.954Z,15.43
2023-04-06T02:03:09.938Z,16.60
2023-04-06T02:05:39.521Z,17.63
2023-04-06T02:08:17.980Z,16.75
2023-04-06T02:10:44.504Z,20.05
2023-04-06T02:13:20.392Z,19.60
2023-04-06T02:15:51.333Z,17.33
2023-04-06T02:18:19.145Z,17.35
2023-04-06T02:20:46.642Z,21.05
2023-04-06T02:23:13.739Z,15.65
2023-04-06T02:25:40.337Z,18.45
2023-04-06T02:28:06.798Z,20.98
2023-04-06T02:30:33.720Z,18.85
2023-04-06T02:33:03.451Z,17.42
2023-04-06T02:35:38.674Z,16.60
2023-04-06T02:38:05.458Z,17.77
2023-04-06T02:40:31.934Z,17.77
2023-04-06T02:43:05.834Z,17.33
2023-04-06T02:45:32.404Z,17.02
2023-04-06T02:48:01.017Z,20.73
2023-04-06T02:50:28.169Z,17.85
2023-04-06T02:52:59.881Z,14.65
2023-04-06T02:55:26.707Z,16.15
2023-04-06T02:57:53.146Z,18.33
2023-04-06T03:00:24.191Z,16.25
2023-04-06T03:02:50.654Z,19.67
2023-04-06T03:05:18.304Z,17.45
2023-04-06T03:07:46.336Z,19.00
2023-04-06T03:10:20.048Z,19.05
2023-04-06T03:12:47.985Z,18.10
2023-04-06T03:15:17.560Z,15.00
2023-04-06T03:17:49.045Z,15.68
2023-04-06T03:20:30.492Z,18.73
2023-04-06T03:22:56.918Z,14.18
2023-04-06T03:25:27.473Z,17.13
2023-04-06T03:27:58.689Z,15.35
2023-04-06T03:30:25.651Z,15.65
2023-04-06T03:35:19.600Z,14.18
2023-04-06T03:37:46.264Z,16.35
2023-04-06T03:40:12.928Z,14.38
2023-04-06T03:42:39.413Z,16.25
2023-04-06T03:45:13.813Z,15.98
2023-04-06T03:47:45.531Z,15.00
2023-04-06T03:50:12.247Z,17.67
2023-04-06T03:55:06.839Z,15.80
2023-04-06T03:57:33.409Z,14.85
2023-04-06T03:59:59.865Z,13.13
2023-04-06T04:02:26.540Z,18.63
2023-04-06T04:04:53.057Z,13.10
2023-04-06T04:07:19.558Z,13.77
2023-04-06T04:09:45.963Z,15.00
2023-04-06T04:12:12.341Z,14.75
2023-04-06T04:14:38.778Z,16.30
2023-04-06T04:17:05.374Z,13.55
2023-04-06T04:19:31.788Z,15.05
2023-04-06T04:21:58.256Z,17.27
2023-04-06T04:24:32.451Z,14.80
2023-04-06T04:26:59.008Z,16.38
2023-04-06T04:29:25.987Z,17.65
2023-04-06T04:31:53.493Z,17.00
2023-04-06T04:34:21.820Z,15.43
2023-04-06T04:36:50.008Z,16.95
2023-04-06T04:39:24.180Z,18.13
2023-04-06T04:41:57.874Z,17.40
2023-04-06T04:44:24.371Z,19.52
2023-04-06T04:46:51.057Z,17.35
2023-04-06T04:49:20.260Z,18.92
2023-04-06T04:51:53.523Z,21.20
2023-04-06T04:54:27.576Z,16.58
2023-04-06T04:56:54.302Z,18.88
2023-04-06T04:59:34.868Z,20.35
2023-04-06T05:02:10.468Z,22.15
2023-04-06T05:04:46.512Z,22.75
2023-04-06T05:07:19.779Z,16.65
2023-04-06T05:09:46.463Z,20.23
2023-04-06T05:14:50.263Z,18.58
2023-04-06T05:17:18.922Z,22.67
2023-04-06T05:19:45.580Z,19.35
2023-04-06T05:22:17.172Z,18.30
2023-04-06T05:24:46.724Z,19.42
2023-04-06T05:27:13.164Z,23.77
2023-04-06T05:29:39.627Z,21.02
2023-04-06T05:32:07.136Z,22.40
2023-04-06T05:34:34.633Z,21.85
2023-04-06T05:37:04.215Z,21.45
2023-04-06T05:39:31.141Z,21.45
2023-04-06T05:41:57.724Z,19.42
2023-04-06T05:44:38.659Z,19.95
2023-04-06T05:47:09.903Z,19.67
2023-04-06T05:49:37.887Z,22.13
2023-04-06T05:52:09.012Z,21.83
2023-04-06T05:54:36.482Z,18.27
2023-04-06T05:57:03.922Z,19.02
2023-04-06T05:59:32.402Z,17.30
2023-04-06T06:02:02.154Z,22.77
2023-04-06T06:04:31.997Z,21.55
2023-04-06T06:06:58.477Z,21.45
2023-04-06T06:09:31.978Z,21.75
2023-04-06T06:12:12.602Z,19.15
2023-04-06T06:14:41.001Z,22.90
2023-04-06T06:17:07.380Z,21.88
2023-04-06T06:22:04.001Z,18.50
2023-04-06T06:24:32.393Z,21.25
2023-04-06T06:27:00.136Z,18.67
2023-04-06T06:29:29.081Z,21.58
2023-04-06T06:31:55.643Z,21.80
2023-04-06T06:34:23.760Z,21.90
2023-04-06T06:39:18.729Z,20.35
2023-04-06T06:41:45.602Z,21.40
2023-04-06T06:44:12.284Z,25.40
2023-04-06T06:46:38.856Z,23.90
2023-04-06T06:49:06.564Z,23.02
2023-04-06T06:51:33.215Z,22.63
2023-04-06T06:54:01.000Z,20.00
2023-04-06T06:56:29.006Z,21.10
2023-04-06T06:58:56.008Z,23.45
2023-04-06T07:01:22.575Z,23.80
2023-04-06T07:06:15.797Z,24.38
2023-04-06T07:08:42.272Z,28.17
2023-04-06T07:11:08.788Z,22.30
2023-04-06T07:13:35.290Z,25.42
2023-04-06T07:16:02.748Z,21.98
2023-04-06T07:18:29.612Z,21.88
2023-04-06T07:20:56.281Z,25.90
2023-04-06T07:23:22.816Z,23.83
2023-04-06T07:25:51.878Z,22.63
2023-04-06T07:28:18.245Z,23.48
2023-04-06T07:30:44.840Z,22.48
2023-04-06T07:33:12.138Z,24.25
2023-04-06T07:35:40.385Z,26.63
2023-04-06T07:38:07.350Z,25.27
2023-04-06T07:40:35.338Z,26.67
2023-04-06T07:43:02.965Z,25.60
2023-04-06T07:45:30.357Z,24.17
2023-04-06T07:47:57.467Z,25.75
2023-04-06T07:50:26.306Z,25.88
2023-04-06T07:52:53.662Z,24.92
2023-04-06T07:57:46.995Z,23.48
2023-04-06T08:00:14.007Z,21.08
2023-04-06T08:02:40.538Z,22.58
2023-04-06T08:05:08.030Z,24.92
2023-04-06T08:07:34.561Z,26.85
2023-04-06T08:10:01.123Z,29.98
2023-04-06T08:12:27.561Z,24.15
2023-04-06T08:14:53.995Z,24.73
2023-04-06T08:17:20.557Z,26.20
2023-04-06T08:19:47.250Z,25.63
2023-04-06T08:22:13.690Z,27.52
2023-04-06T08:24:40.159Z,26.45
2023-04-06T08:27:06.837Z,25.63
2023-04-06T08:31:59.851Z,27.35
2023-04-06T08:34:26.482Z,21.35
2023-04-06T08:36:53.266Z,26.02
2023-04-06T08:39:26.086Z,26.33
2023-04-06T08:41:53.511Z,25.13
2023-04-06T08:44:20.375Z,26.73
2023-04-06T08:46:46.940Z,24.25
2023-04-06T08:49:13.793Z,25.02
2023-04-06T08:56:33.359Z,25.17
2023-04-06T08:58:59.966Z,25.85
2023-04-06T09:01:30.470Z,27.50
2023-04-06T09:03:58.613Z,23.92
2023-04-06T09:06:26.610Z,25.92
2023-04-06T09:08:53.033Z,28.13
2023-04-06T09:11:20.886Z,26.20
2023-04-06T09:13:48.542Z,25.92
2023-04-06T09:16:15.404Z,26.10
2023-04-06T09:18:42.100Z,25.15
2023-04-06T09:23:35.245Z,25.25
2023-04-06T09:26:17.914Z,27.83
2023-04-06T09:28:47.538Z,27.08
2023-04-06T09:31:14.538Z,25.05
2023-04-06T09:33:46.020Z,25.35
2023-04-06T09:36:13.052Z,27.10
2023-04-06T09:38:40.126Z,28.00
2023-04-06T09:41:06.706Z,26.33
2023-04-06T09:43:33.393Z,24.80
2023-04-06T09:51:00.761Z,26.88
2023-04-06T09:53:27.828Z,26.85
2023-04-06T09:55:58.099Z,29.52
2023-04-06T09:58:27.742Z,28.52
2023-04-06T10:01:04.004Z,27.83
2023-04-06T10:03:31.286Z,30.80
2023-04-06T10:06:01.569Z,28.83
2023-04-06T10:08:31.855Z,29.38
2023-04-06T10:10:59.635Z,36.30
2023-04-06T10:13:26.196Z,29.63
2023-04-06T10:20:50.672Z,29.20
2023-04-06T10:23:23.174Z,27.40
2023-04-06T10:25:53.504Z,23.98
2023-04-06T10:28:20.390Z,24.92
2023-04-06T10:30:46.853Z,26.60
2023-04-06T10:33:14.602Z,21.23
2023-04-06T10:35:41.046Z,16.83
2023-04-06T10:38:08.246Z,19.13
2023-04-06T10:40:39.013Z,19.33
2023-04-06T10:43:09.695Z,15.27
2023-04-06T10:45:36.711Z,12.38
2023-04-06T10:48:13.679Z,13.60
2023-04-06T10:50:41.146Z,15.00
2023-04-06T10:53:07.604Z,12.40
2023-04-06T10:55:35.539Z,9.57
2023-04-06T10:58:01.919Z,11.10
2023-04-06T11:00:36.299Z,10.02
2023-04-06T11:03:13.697Z,10.03
2023-04-06T11:05:44.622Z,9.95
2023-04-06T11:08:22.894Z,11.73
2023-04-06T11:10:50.463Z,10.25
2023-04-06T11:13:17.011Z,10.60
2023-04-06T11:15:43.534Z,9.93
2023-04-06T11:18:10.613Z,10.95
2023-04-06T11:20:37.176Z,10.52
2023-04-06T11:23:04.706Z,11.07
2023-04-06T11:25:33.339Z,9.95
2023-04-06T11:27:59.863Z,13.75
2023-04-06T11:30:26.327Z,9.55
2023-04-06T11:32:52.852Z,9.52
2023-04-06T11:35:23.521Z,12.57
2023-04-06T11:37:50.996Z,9.90
2023-04-06T11:40:21.786Z,11.25
2023-04-06T11:42:54.966Z,11.43
2023-04-06T11:45:21.656Z,9.70
2023-04-06T11:50:15.091Z,10.05
2023-04-06T11:52:42.067Z,9.93
2023-04-06T11:55:12.994Z,10.98
2023-04-06T11:57:39.812Z,11.40
2023-04-06T12:00:07.319Z,10.73
2023-04-06T12:02:34.005Z,11.73
2023-04-06T12:07:26.815Z,11.43
2023-04-06T12:09:53.194Z,11.40
2023-04-06T12:12:19.638Z,12.15
2023-04-06T12:14:46.062Z,11.77
2023-04-06T12:17:12.518Z,12.10
2023-04-06T12:19:39.226Z,12.45
2023-04-06T12:24:32.533Z,12.57
2023-04-06T12:27:08.679Z,12.70
2023-04-06T12:29:36.308Z,12.95
2023-04-06T12:32:03.845Z,12.98
2023-04-06T12:34:35.806Z,17.00
2023-04-06T12:37:02.716Z,14.43
2023-04-06T12:39:29.316Z,14.15
2023-04-06T12:41:57.305Z,12.48
2023-04-06T12:44:25.477Z,13.55
2023-04-06T12:46:55.812Z,13.30
2023-04-06T12:49:22.845Z,12.30
2023-04-06T12:51:49.948Z,12.45
2023-04-06T12:54:16.630Z,12.68
2023-04-06T12:56:46.667Z,11.95
2023-04-06T12:59:13.310Z,14.60
2023-04-06T13:01:39.954Z,14.25
2023-04-06T13:04:06.413Z,14.00
2023-04-06T13:06:32.835Z,12.43
2023-04-06T13:08:59.382Z,13.23
2023-04-06T13:11:28.649Z,15.27
2023-04-06T13:13:55.612Z,14.82
2023-04-06T13:16:22.147Z,14.65
2023-04-06T13:18:49.032Z,12.45
2023-04-06T13:21:17.322Z,13.70
2023-04-06T13:23:45.106Z,13.50
2023-04-06T13:26:11.527Z,13.48
2023-04-06T13:28:38.975Z,13.60
2023-04-06T13:31:05.857Z,15.68
2023-04-06T13:33:32.303Z,14.25
2023-04-06T13:35:58.814Z,14.10
2023-04-06T13:38:25.401Z,15.60
2023-04-06T13:40:52.057Z,13.95
2023-04-06T13:43:20.456Z,16.08
2023-04-06T13:45:51.033Z,17.70
2023-04-06T13:48:17.637Z,15.13
2023-04-06T13:50:44.205Z,16.83
2023-04-06T13:53:10.611Z,14.23
2023-04-06T13:55:37.083Z,16.38
2023-04-06T13:58:10.374Z,13.55
2023-04-06T14:00:38.075Z,13.95
2023-04-06T14:03:04.888Z,15.30
2023-04-06T14:05:32.379Z,18.27
2023-04-06T14:07:59.150Z,18.17
2023-04-06T14:12:54.697Z,15.95
2023-04-06T14:15:22.819Z,16.27
2023-04-06T14:17:49.446Z,18.25
2023-04-06T14:20:16.245Z,16.55
2023-04-06T14:25:11.945Z,16.38
2023-04-06T14:27:38.312Z,15.18
2023-04-06T14:30:04.893Z,16.70
2023-04-06T14:32:31.285Z,17.75
2023-04-06T14:34:57.773Z,16.52
2023-04-06T14:37:24.243Z,16.58
2023-04-06T14:39:50.819Z,18.05
2023-04-06T14:42:17.193Z,15.80
2023-04-06T14:44:45.695Z,17.17
2023-04-06T14:47:12.181Z,17.55
2023-04-06T14:49:38.598Z,18.33
2023-04-06T14:52:05.481Z,16.90
2023-04-06T14:54:31.938Z,18.58
2023-04-06T14:56:58.386Z,17.08
2023-04-06T14:59:24.894Z,17.70
2023-04-06T15:01:52.379Z,20.48
2023-04-06T15:04:19.106Z,16.73
2023-04-06T15:06:45.801Z,17.10
2023-04-06T15:09:12.164Z,17.60
2023-04-06T15:11:39.246Z,20.02
2023-04-06T15:14:06.913Z,17.80
2023-04-06T15:16:33.728Z,16.65
2023-04-06T15:19:01.272Z,18.65
2023-04-06T15:21:27.945Z,19.27
2023-04-06T15:26:21.710Z,18.67
2023-04-06T15:28:48.173Z,21.27
2023-04-06T15:31:20.711Z,17.38
2023-04-06T15:33:55.554Z,20.88
2023-04-06T15:36:27.205Z,18.33
2023-04-06T15:38:53.717Z,19.75
2023-04-06T15:41:20.933Z,21.38
2023-04-06T15:43:47.677Z,17.90
2023-04-06T15:46:14.934Z,20.70
2023-04-06T15:48:42.438Z,18.15
2023-04-06T15:51:09.014Z,16.65
2023-04-06T15:53:36.854Z,20.58
2023-04-06T15:56:08.203Z,17.08
2023-04-06T15:58:35.870Z,19.15
2023-04-06T16:01:11.556Z,16.73
2023-04-06T16:03:38.479Z,16.23
2023-04-06T16:06:09.008Z,19.15
2023-04-06T16:08:36.750Z,17.88
2023-04-06T16:11:03.252Z,20.63
2023-04-06T16:13:29.699Z,17.42
2023-04-06T16:15:56.514Z,21.52
2023-04-06T16:23:15.813Z,16.73
2023-04-06T16:25:42.514Z,18.25
2023-04-06T16:30:40.452Z,16.80
2023-04-06T16:33:09.583Z,17.05
2023-04-06T16:35:36.183Z,19.27
2023-04-06T16:38:02.731Z,18.08
2023-04-06T16:40:29.182Z,22.17
2023-04-06T16:42:55.678Z,28.38
2023-04-06T16:45:22.205Z,19.27
2023-04-06T16:47:50.313Z,18.67
2023-04-06T16:50:17.358Z,16.60
2023-04-06T16:52:43.995Z,16.08
2023-04-06T16:55:10.574Z,17.70
2023-04-06T16:57:37.060Z,17.38
2023-04-06T17:00:05.464Z,19.67
2023-04-06T17:02:35.893Z,21.23
2023-04-06T17:05:03.373Z,19.35
2023-04-06T17:07:33.048Z,15.75
2023-04-06T17:10:01.176Z,20.05
2023-04-06T17:12:28.493Z,16.35
2023-04-06T17:14:55.394Z,17.85
2023-04-06T17:17:21.782Z,15.63
2023-04-06T17:19:48.254Z,16.77
2023-04-06T17:22:20.395Z,16.02
2023-04-06T17:24:47.569Z,16.35
2023-04-06T17:27:14.083Z,19.70
2023-04-06T17:29:40.508Z,15.48
2023-04-06T17:32:07.646Z,20.20
2023-04-06T17:34:34.114Z,16.60
2023-04-06T17:37:00.463Z,19.98
2023-04-06T17:39:26.920Z,17.52
2023-04-06T17:41:53.271Z,18.10
2023-04-06T17:44:19.673Z,17.23
2023-04-06T17:46:46.396Z,16.85
2023-04-06T17:49:13.431Z,19.27
2023-04-06T17:51:39.855Z,18.80
2023-04-06T17:54:06.272Z,18.90
2023-04-06T17:56:32.730Z,17.98
2023-04-06T17:58:59.164Z,21.45
2023-04-06T18:01:25.941Z,18.90
2023-04-06T18:06:19.096Z,16.02
2023-04-06T18:08:45.517Z,18.77
2023-04-06T18:11:17.008Z,15.60
2023-04-06T18:13:43.438Z,18.75
2023-04-06T18:16:09.895Z,16.33
2023-04-06T18:18:38.889Z,20.50
2023-04-06T18:21:06.136Z,18.73
2023-04-06T18:23:37.524Z,22.70
2023-04-06T18:26:04.804Z,21.40
2023-04-06T18:31:02.133Z,20.10
2023-04-06T18:33:28.678Z,20.10
2023-04-06T18:35:56.630Z,19.58
2023-04-06T18:38:23.540Z,17.63
2023-04-06T18:40:50.097Z,26.15
2023-04-06T18:43:16.528Z,23.85
2023-04-06T18:45:43.492Z,22.02
2023-04-06T18:48:10.225Z,20.20
2023-04-06T18:55:32.080Z,27.10
2023-04-06T18:57:58.496Z,26.70
2023-04-06T19:00:25.062Z,23.80
2023-04-06T19:02:51.888Z,20.88
2023-04-06T19:05:18.534Z,22.00
2023-04-06T19:07:52.030Z,22.55
2023-04-06T19:10:18.816Z,21.55
2023-04-06T19:17:38.190Z,21.73
2023-04-06T19:20:04.850Z,21.27
2023-04-06T19:22:31.537Z,20.10
2023-04-06T19:24:57.913Z,21.08
2023-04-06T19:27:24.347Z,20.30
2023-04-06T19:29:50.878Z,21.83
2023-04-06T19:32:17.629Z,21.02
2023-04-06T19:37:10.610Z,20.30
2023-04-06T19:39:37.454Z,18.70
2023-04-06T19:42:04.274Z,21.92
2023-04-06T19:44:30.794Z,23.13
2023-04-06T19:46:57.155Z,25.23
2023-04-06T19:49:23.681Z,27.17
2023-04-06T19:51:50.150Z,23.60
2023-04-06T19:54:16.686Z,22.23
2023-04-06T19:56:43.114Z,24.00
2023-04-06T19:59:10.918Z,25.08
2023-04-06T20:01:37.481Z,30.00
2023-04-06T20:06:31.322Z,26.67
2023-04-06T20:08:57.737Z,38.50
2023-04-06T20:11:24.167Z,31.52
2023-04-06T20:13:50.569Z,26.13
2023-04-06T20:16:17.104Z,28.08
2023-04-06T20:18:43.510Z,32.35
2023-04-06T20:21:09.926Z,29.92
2023-04-06T20:23:37.592Z,31.95
2023-04-06T20:26:04.706Z,29.90
2023-04-06T20:28:31.531Z,34.65
2023-04-06T20:33:24.392Z,28.52
2023-04-06T20:35:57.574Z,28.90
2023-04-06T20:38:32.258Z,31.30
2023-04-06T20:40:59.785Z,34.85
2023-04-06T20:43:28.519Z,34.70
2023-04-06T20:45:58.598Z,36.20
2023-04-06T20:48:25.498Z,32.08
2023-04-06T20:50:52.870Z,40.50
2023-04-06T20:53:20.592Z,39.58
2023-04-06T20:55:47.049Z,35.50
2023-04-06T20:58:14.653Z,38.55
2023-04-06T21:00:40.995Z,38.17
2023-04-06T21:03:07.507Z,41.97
2023-04-06T21:05:34.049Z,43.30
2023-04-06T21:08:00.627Z,39.75
2023-04-06T21:10:27.090Z,43.25
2023-04-06T21:12:53.465Z,41.67
2023-04-06T21:15:19.918Z,42.97
2023-04-06T21:17:46.559Z,38.88
2023-04-06T21:22:39.486Z,42.17
2023-04-06T21:25:06.183Z,52.15
2023-04-06T21:29:58.994Z,41.25
2023-04-06T21:32:25.531Z,47.80
2023-04-06T21:34:52.046Z,49.80
2023-04-06T21:37:19.689Z,56.25
2023-04-06T21:39:46.356Z,54.65
2023-04-06T21:42:12.855Z,49.85
2023-04-06T21:44:39.265Z,52.63
2023-04-06T21:47:05.760Z,56.33
2023-04-06T21:49:32.269Z,52.20
2023-04-06T21:51:58.912Z,55.40
2023-04-06T21:54:25.272Z,54.80
2023-04-06T21:56:51.699Z,50.67
2023-04-06T21:59:18.232Z,64.22
2023-04-06T22:01:44.764Z,53.08
2023-04-06T22:04:11.412Z,54.03
2023-04-06T22:11:31.806Z,61.80
2023-04-06T22:13:58.236Z,61.75
2023-04-06T22:16:24.733Z,62.55
2023-04-06T22:18:51.203Z,74.30
2023-04-06T22:21:17.541Z,64.05
2023-04-06T22:23:44.080Z,68.25
2023-04-06T22:26:11.264Z,68.95
2023-04-06T22:28:37.934Z,56.50
2023-04-06T22:33:30.854Z,53.90
2023-04-06T22:35:57.347Z,56.47
2023-04-06T22:38:23.762Z,53.15
2023-04-06T22:40:50.166Z,57.15
2023-04-06T22:43:16.620Z,57.20
2023-04-06T22:45:43.021Z,44.35
2023-04-06T22:48:09.428Z,45.85
2023-04-06T22:50:36.033Z,45.08
2023-04-06T22:53:02.411Z,44.47
2023-04-06T22:55:28.883Z,42.78
2023-04-06T22:57:55.469Z,34.20
2023-04-06T23:00:22.047Z,29.70
2023-04-06T23:02:48.785Z,27.77
2023-04-06T23:05:15.436Z,32.72
2023-04-06T23:07:41.914Z,30.65
2023-04-06T23:10:08.838Z,30.65
2023-04-06T23:12:35.252Z,30.25
2023-04-06T23:15:01.719Z,29.35
2023-04-06T23:17:28.388Z,20.77
2023-04-06T23:22:21.389Z,29.05
2023-04-06T23:24:49.698Z,24.58
2023-04-06T23:27:16.340Z,24.67
2023-04-06T23:29:42.774Z,24.92
2023-04-06T23:32:09.249Z,24.83
2023-04-06T23:34:35.708Z,22.83
2023-04-06T23:37:03.087Z,21.35
2023-04-06T23:39:30.437Z,23.20
2023-04-06T23:41:57.826Z,19.77
2023-04-06T23:44:24.839Z,16.27
2023-04-06T23:46:51.369Z,22.65
2023-04-06T23:49:17.847Z,20.15
2023-04-06T23:51:44.316Z,17.45
2023-04-06T23:54:10.764Z,14.63
2023-04-06T23:56:37.245Z,15.05
2023-04-06T23:59:03.695Z,14.82
